sensor_id;sensor_type;location;lat;lon;timestamp;pressure;altitude;pressure_sealevel;temperature;humidity
49030;BME280;43337;52.070;4.508;2024-03-06T00:00:17;101945.09;;;6.45;100.00
49030;BME280;43337;52.070;4.508;2024-03-06T00:02:43;101939.88;;;6.43;100.00
49030;BME280;43337;52.070;4.508;2024-03-06T00:05:08;101939.88;;;6.42;100.00
49030;BME280;43337;52.070;4.508;2024-03-06T00:07:34;101951.22;;;6.44;100.00
49030;BME280;43337;52.070;4.508;2024-03-06T00:09:59;101953.81;;;6.47;100.00
49030;BME280;43337;52.070;4.508;2024-03-06T00:12:25;101956.44;;;6.44;100.00
49030;BME280;43337;52.070;4.508;2024-03-06T00:14:50;101962.56;;;6.46;100.00
49030;BME280;43337;52.070;4.508;2024-03-06T00:17:15;101973.84;;;6.48;100.00
49030;BME280;43337;52.070;4.508;2024-03-06T00:19:41;101974.72;;;6.45;100.00
49030;BME280;43337;52.070;4.508;2024-03-06T00:22:09;101985.22;;;6.47;100.00
49030;BME280;43337;52.070;4.508;2024-03-06T00:24:35;101982.59;;;6.44;100.00
49030;BME280;43337;52.070;4.508;2024-03-06T00:27:00;101987.81;;;6.50;100.00
49030;BME280;43337;52.070;4.508;2024-03-06T00:29:26;101985.19;;;6.48;100.00
49030;BME280;43337;52.070;4.508;2024-03-06T00:31:52;101987.78;;;6.51;100.00
49030;BME280;43337;52.070;4.508;2024-03-06T00:34:17;101984.31;;;6.51;100.00
49030;BME280;43337;52.070;4.508;2024-03-06T00:36:43;101986.03;;;6.53;100.00
49030;BME280;43337;52.070;4.508;2024-03-06T00:39:09;101981.66;;;6.55;100.00
49030;BME280;43337;52.070;4.508;2024-03-06T00:41:35;101991.25;;;6.55;100.00
49030;BME280;43337;52.070;4.508;2024-03-06T00:44:00;101972.97;;;6.50;100.00
49030;BME280;43337;52.070;4.508;2024-03-06T00:46:25;102000.84;;;6.57;100.00
49030;BME280;43337;52.070;4.508;2024-03-06T00:48:51;101986.00;;;6.56;100.00
49030;BME280;43337;52.070;4.508;2024-03-06T00:51:16;101991.25;;;6.58;100.00
49030;BME280;43337;52.070;4.508;2024-03-06T00:53:41;101979.06;;;6.54;100.00
49030;BME280;43337;52.070;4.508;2024-03-06T00:56:07;101989.47;;;6.60;100.00
49030;BME280;43337;52.070;4.508;2024-03-06T00:58:32;101986.88;;;6.58;100.00
49030;BME280;43337;52.070;4.508;2024-03-06T01:00:58;101993.81;;;6.59;100.00
49030;BME280;43337;52.070;4.508;2024-03-06T01:03:23;102001.66;;;6.61;100.00
49030;BME280;43337;52.070;4.508;2024-03-06T01:05:50;101988.63;;;6.56;100.00
49030;BME280;43337;52.070;4.508;2024-03-06T01:08:18;101995.56;;;6.62;100.00
49030;BME280;43337;52.070;4.508;2024-03-06T01:10:43;101998.19;;;6.59;100.00
49030;BME280;43337;52.070;4.508;2024-03-06T01:13:09;101996.47;;;6.58;100.00
49030;BME280;43337;52.070;4.508;2024-03-06T01:15:36;101999.94;;;6.57;100.00
49030;BME280;43337;52.070;4.508;2024-03-06T01:18:01;101992.16;;;6.49;100.00
49030;BME280;43337;52.070;4.508;2024-03-06T01:20:28;102009.53;;;6.59;100.00
49030;BME280;43337;52.070;4.508;2024-03-06T01:22:53;102012.16;;;6.58;100.00
49030;BME280;43337;52.070;4.508;2024-03-06T01:25:19;102006.94;;;6.56;100.00
49030;BME280;43337;52.070;4.508;2024-03-06T01:27:44;102011.31;;;6.54;100.00
49030;BME280;43337;52.070;4.508;2024-03-06T01:30:09;102009.53;;;6.56;100.00
49030;BME280;43337;52.070;4.508;2024-03-06T01:32:35;102014.78;;;6.56;100.00
49030;BME280;43337;52.070;4.508;2024-03-06T01:35:00;102008.69;;;6.57;100.00
49030;BME280;43337;52.070;4.508;2024-03-06T01:37:26;102012.16;;;6.56;100.00
49030;BME280;43337;52.070;4.508;2024-03-06T01:39:51;102011.31;;;6.57;100.00
49030;BME280;43337;52.070;4.508;2024-03-06T01:42:17;102009.53;;;6.56;100.00
49030;BME280;43337;52.070;4.508;2024-03-06T01:44:42;102019.97;;;6.61;100.00
49030;BME280;43337;52.070;4.508;2024-03-06T01:47:08;102010.41;;;6.62;100.00
49030;BME280;43337;52.070;4.508;2024-03-06T01:49:33;102026.06;;;6.65;100.00
49030;BME280;43337;52.070;4.508;2024-03-06T01:51:59;102014.75;;;6.63;100.00
49030;BME280;43337;52.070;4.508;2024-03-06T01:54:25;102012.97;;;6.65;100.00
49030;BME280;43337;52.070;4.508;2024-03-06T01:56:51;102017.34;;;6.66;100.00
49030;BME280;43337;52.070;4.508;2024-03-06T01:59:19;102027.78;;;6.67;100.00
49030;BME280;43337;52.070;4.508;2024-03-06T02:01:46;102000.84;;;6.53;100.00
49030;BME280;43337;52.070;4.508;2024-03-06T02:04:12;102020.88;;;6.62;100.00
49030;BME280;43337;52.070;4.508;2024-03-06T02:06:41;102042.63;;;6.70;100.00
49030;BME280;43337;52.070;4.508;2024-03-06T02:09:08;102046.09;;;6.70;100.00
49030;BME280;43337;52.070;4.508;2024-03-06T02:11:34;102033.91;;;6.65;100.00
49030;BME280;43337;52.070;4.508;2024-03-06T02:14:00;102042.63;;;6.67;100.00
49030;BME280;43337;52.070;4.508;2024-03-06T02:16:25;102052.22;;;6.68;100.00
49030;BME280;43337;52.070;4.508;2024-03-06T02:18:55;102041.78;;;6.63;100.00
49030;BME280;43337;52.070;4.508;2024-03-06T02:21:22;102045.25;;;6.64;100.00
49030;BME280;43337;52.070;4.508;2024-03-06T02:23:48;102043.50;;;6.64;100.00
49030;BME280;43337;52.070;4.508;2024-03-06T02:26:14;102033.06;;;6.59;100.00
49030;BME280;43337;52.070;4.508;2024-03-06T02:28:39;102034.84;;;6.57;100.00
49030;BME280;43337;52.070;4.508;2024-03-06T02:31:11;102022.69;;;6.47;100.00
49030;BME280;43337;52.070;4.508;2024-03-06T02:33:36;102034.84;;;6.53;100.00
49030;BME280;43337;52.070;4.508;2024-03-06T02:36:02;102041.84;;;6.54;100.00
49030;BME280;43337;52.070;4.508;2024-03-06T02:38:27;102041.91;;;6.46;100.00
49030;BME280;43337;52.070;4.508;2024-03-06T02:40:52;102050.59;;;6.48;100.00
49030;BME280;43337;52.070;4.508;2024-03-06T02:43:18;102043.66;;;6.43;100.00
49030;BME280;43337;52.070;4.508;2024-03-06T02:45:43;102026.28;;;6.32;100.00
49030;BME280;43337;52.070;4.508;2024-03-06T02:48:09;102037.59;;;6.36;100.00
49030;BME280;43337;52.070;4.508;2024-03-06T02:50:35;102048.91;;;6.40;100.00
49030;BME280;43337;52.070;4.508;2024-03-06T02:53:00;102057.63;;;6.34;100.00
49030;BME280;43337;52.070;4.508;2024-03-06T02:55:26;102028.91;;;6.26;100.00
49030;BME280;43337;52.070;4.508;2024-03-06T02:57:51;102034.97;;;6.33;100.00
49030;BME280;43337;52.070;4.508;2024-03-06T03:00:16;102029.78;;;6.28;100.00
49030;BME280;43337;52.070;4.508;2024-03-06T03:02:42;102028.03;;;6.29;100.00
49030;BME280;43337;52.070;4.508;2024-03-06T03:05:08;102035.03;;;6.27;100.00
49030;BME280;43337;52.070;4.508;2024-03-06T03:07:34;102030.66;;;6.26;100.00
49030;BME280;43337;52.070;4.508;2024-03-06T03:09:59;102042.00;;;6.25;100.00
49030;BME280;43337;52.070;4.508;2024-03-06T03:12:25;102037.66;;;6.22;100.00
49030;BME280;43337;52.070;4.508;2024-03-06T03:14:50;102045.47;;;6.25;100.00
49030;BME280;43337;52.070;4.508;2024-03-06T03:17:18;102035.94;;;6.17;100.00
49030;BME280;43337;52.070;4.508;2024-03-06T03:19:45;102055.06;;;6.25;100.00
49030;BME280;43337;52.070;4.508;2024-03-06T03:22:11;102042.00;;;6.22;100.00
49030;BME280;43337;52.070;4.508;2024-03-06T03:24:36;102049.84;;;6.25;100.00
49030;BME280;43337;52.070;4.508;2024-03-06T03:27:04;102057.69;;;6.28;100.00
49030;BME280;43337;52.070;4.508;2024-03-06T03:29:37;102053.31;;;6.25;100.00
49030;BME280;43337;52.070;4.508;2024-03-06T03:32:02;102063.78;;;6.25;100.00
49030;BME280;43337;52.070;4.508;2024-03-06T03:34:27;102061.16;;;6.28;100.00
49030;BME280;43337;52.070;4.508;2024-03-06T03:36:53;102043.81;;;6.14;100.00
49030;BME280;43337;52.070;4.508;2024-03-06T03:39:18;102057.69;;;6.22;100.00
49030;BME280;43337;52.070;4.508;2024-03-06T03:41:46;102049.00;;;6.18;100.00
49030;BME280;43337;52.070;4.508;2024-03-06T03:44:16;102061.19;;;6.25;100.00
49030;BME280;43337;52.070;4.508;2024-03-06T03:46:42;102061.19;;;6.22;100.00
49030;BME280;43337;52.070;4.508;2024-03-06T03:49:07;102054.25;;;6.23;100.00
49030;BME280;43337;52.070;4.508;2024-03-06T03:51:37;102055.97;;;6.27;100.00
49030;BME280;43337;52.070;4.508;2024-03-06T03:54:02;102058.59;;;6.24;100.00
49030;BME280;43337;52.070;4.508;2024-03-06T03:56:28;102058.56;;;6.25;100.00
49030;BME280;43337;52.070;4.508;2024-03-06T03:58:53;102059.44;;;6.26;100.00
49030;BME280;43337;52.070;4.508;2024-03-06T04:01:19;102057.72;;;6.19;100.00
49030;BME280;43337;52.070;4.508;2024-03-06T04:03:44;102049.88;;;6.19;100.00
49030;BME280;43337;52.070;4.508;2024-03-06T04:06:10;102051.63;;;6.20;100.00
49030;BME280;43337;52.070;4.508;2024-03-06T04:08:35;102060.34;;;6.20;100.00
49030;BME280;43337;52.070;4.508;2024-03-06T04:11:03;102069.03;;;6.25;100.00
49030;BME280;43337;52.070;4.508;2024-03-06T04:13:28;102061.19;;;6.21;100.00
49030;BME280;43337;52.070;4.508;2024-03-06T04:15:54;102075.13;;;6.24;100.00
49030;BME280;43337;52.070;4.508;2024-03-06T04:18:19;102075.16;;;6.23;100.00
49030;BME280;43337;52.070;4.508;2024-03-06T04:20:44;102076.03;;;6.23;100.00
49030;BME280;43337;52.070;4.508;2024-03-06T04:23:10;102076.03;;;6.20;100.00
49030;BME280;43337;52.070;4.508;2024-03-06T04:25:35;102087.34;;;6.22;100.00
49030;BME280;43337;52.070;4.508;2024-03-06T04:28:02;102058.63;;;6.07;100.00
49030;BME280;43337;52.070;4.508;2024-03-06T04:30:27;102075.16;;;6.17;100.00
49030;BME280;43337;52.070;4.508;2024-03-06T04:32:53;102077.81;;;6.15;100.00
49030;BME280;43337;52.070;4.508;2024-03-06T04:35:18;102087.38;;;6.15;100.00
49030;BME280;43337;52.070;4.508;2024-03-06T04:37:43;102082.13;;;6.15;100.00
49030;BME280;43337;52.070;4.508;2024-03-06T04:40:09;102082.16;;;6.13;100.00
49030;BME280;43337;52.070;4.508;2024-03-06T04:42:35;102082.16;;;6.13;100.00
49030;BME280;43337;52.070;4.508;2024-03-06T04:45:10;102083.06;;;6.07;100.00
49030;BME280;43337;52.070;4.508;2024-03-06T04:47:36;102078.69;;;6.03;100.00
49030;BME280;43337;52.070;4.508;2024-03-06T04:50:01;102094.41;;;6.02;100.00
49030;BME280;43337;52.070;4.508;2024-03-06T04:52:26;102094.41;;;5.94;100.00
49030;BME280;43337;52.070;4.508;2024-03-06T04:54:52;102088.31;;;5.86;100.00
49030;BME280;43337;52.070;4.508;2024-03-06T04:57:17;102075.28;;;5.68;100.00
49030;BME280;43337;52.070;4.508;2024-03-06T04:59:43;102109.25;;;5.78;100.00
49030;BME280;43337;52.070;4.508;2024-03-06T05:02:08;102119.69;;;5.72;100.00
49030;BME280;43337;52.070;4.508;2024-03-06T05:04:34;102122.31;;;5.68;100.00
49030;BME280;43337;52.070;4.508;2024-03-06T05:06:59;102116.25;;;5.59;100.00
49030;BME280;43337;52.070;4.508;2024-03-06T05:09:24;102119.72;;;5.58;100.00
49030;BME280;43337;52.070;4.508;2024-03-06T05:11:49;102117.13;;;5.51;100.00
49030;BME280;43337;52.070;4.508;2024-03-06T05:14:16;102126.72;;;5.50;100.00
49030;BME280;43337;52.070;4.508;2024-03-06T05:16:41;102131.03;;;5.45;100.00
49030;BME280;43337;52.070;4.508;2024-03-06T05:19:06;102132.78;;;5.37;100.00
49030;BME280;43337;52.070;4.508;2024-03-06T05:21:32;102136.28;;;5.34;100.00
49030;BME280;43337;52.070;4.508;2024-03-06T05:23:58;102137.13;;;5.30;100.00
49030;BME280;43337;52.070;4.508;2024-03-06T05:26:23;102134.53;;;5.26;100.00
49030;BME280;43337;52.070;4.508;2024-03-06T05:28:50;102112.78;;;5.08;100.00
49030;BME280;43337;52.070;4.508;2024-03-06T05:31:17;102117.13;;;5.09;100.00
49030;BME280;43337;52.070;4.508;2024-03-06T05:33:44;102135.41;;;5.09;100.00
49030;BME280;43337;52.070;4.508;2024-03-06T05:36:10;102121.47;;;4.97;100.00
49030;BME280;43337;52.070;4.508;2024-03-06T05:38:35;102123.22;;;4.96;100.00
49030;BME280;43337;52.070;4.508;2024-03-06T05:41:00;102126.69;;;4.94;100.00
49030;BME280;43337;52.070;4.508;2024-03-06T05:43:26;102140.59;;;4.96;100.00
49030;BME280;43337;52.070;4.508;2024-03-06T05:45:51;102145.81;;;4.89;100.00
49030;BME280;43337;52.070;4.508;2024-03-06T05:48:16;102143.19;;;4.85;100.00
49030;BME280;43337;52.070;4.508;2024-03-06T05:50:41;102157.09;;;4.84;100.00
49030;BME280;43337;52.070;4.508;2024-03-06T05:53:07;102161.44;;;4.79;100.00
49030;BME280;43337;52.070;4.508;2024-03-06T05:55:32;102158.78;;;4.73;100.00
49030;BME280;43337;52.070;4.508;2024-03-06T05:57:57;102169.25;;;4.70;100.00
49030;BME280;43337;52.070;4.508;2024-03-06T06:00:24;102171.81;;;4.65;100.00
49030;BME280;43337;52.070;4.508;2024-03-06T06:02:49;102172.69;;;4.62;100.00
49030;BME280;43337;52.070;4.508;2024-03-06T06:05:15;102178.75;;;4.60;100.00
49030;BME280;43337;52.070;4.508;2024-03-06T06:07:40;102165.69;;;4.48;100.00
49030;BME280;43337;52.070;4.508;2024-03-06T06:10:06;102182.22;;;4.54;100.00
49030;BME280;43337;52.070;4.508;2024-03-06T06:12:36;102193.50;;;4.52;100.00
49030;BME280;43337;52.070;4.508;2024-03-06T06:15:02;102190.03;;;4.47;100.00
49030;BME280;43337;52.070;4.508;2024-03-06T06:17:28;102196.06;;;4.46;100.00
49030;BME280;43337;52.070;4.508;2024-03-06T06:19:54;102201.28;;;4.44;100.00
49030;BME280;43337;52.070;4.508;2024-03-06T06:22:19;102196.03;;;4.38;100.00
49030;BME280;43337;52.070;4.508;2024-03-06T06:24:44;102203.03;;;4.44;100.00
49030;BME280;43337;52.070;4.508;2024-03-06T06:27:11;102210.84;;;4.44;100.00
49030;BME280;43337;52.070;4.508;2024-03-06T06:29:37;102216.94;;;4.44;100.00
49030;BME280;43337;52.070;4.508;2024-03-06T06:32:03;102217.78;;;4.40;100.00
49030;BME280;43337;52.070;4.508;2024-03-06T06:34:28;102230.84;;;4.43;100.00
49030;BME280;43337;52.070;4.508;2024-03-06T06:36:53;102227.38;;;4.44;100.00
49030;BME280;43337;52.070;4.508;2024-03-06T06:39:19;102231.72;;;4.44;100.00
49030;BME280;43337;52.070;4.508;2024-03-06T06:41:44;102236.94;;;4.44;100.00
49030;BME280;43337;52.070;4.508;2024-03-06T06:44:10;102238.69;;;4.46;100.00
49030;BME280;43337;52.070;4.508;2024-03-06T06:46:35;102243.03;;;4.47;100.00
49030;BME280;43337;52.070;4.508;2024-03-06T06:49:00;102243.88;;;4.43;100.00
49030;BME280;43337;52.070;4.508;2024-03-06T06:51:26;102248.25;;;4.49;100.00
49030;BME280;43337;52.070;4.508;2024-03-06T06:53:51;102262.19;;;4.51;100.00
49030;BME280;43337;52.070;4.508;2024-03-06T06:56:16;102257.84;;;4.51;100.00
49030;BME280;43337;52.070;4.508;2024-03-06T06:58:42;102258.69;;;4.49;100.00
49030;BME280;43337;52.070;4.508;2024-03-06T07:01:08;102270.88;;;4.53;100.00
49030;BME280;43337;52.070;4.508;2024-03-06T07:03:34;102270.88;;;4.53;100.00
49030;BME280;43337;52.070;4.508;2024-03-06T07:06:00;102267.38;;;4.48;100.00
49030;BME280;43337;52.070;4.508;2024-03-06T07:08:25;102269.97;;;4.43;100.00
49030;BME280;43337;52.070;4.508;2024-03-06T07:10:52;102279.53;;;4.49;100.00
49030;BME280;43337;52.070;4.508;2024-03-06T07:13:19;102279.56;;;4.47;100.00
49030;BME280;43337;52.070;4.508;2024-03-06T07:15:45;102285.63;;;4.46;100.00
49030;BME280;43337;52.070;4.508;2024-03-06T07:18:10;102290.00;;;4.52;100.00
49030;BME280;43337;52.070;4.508;2024-03-06T07:20:35;102278.72;;;4.50;100.00
49030;BME280;43337;52.070;4.508;2024-03-06T07:23:01;102280.41;;;4.49;100.00
49030;BME280;43337;52.070;4.508;2024-03-06T07:25:26;102291.75;;;4.53;100.00
49030;BME280;43337;52.070;4.508;2024-03-06T07:27:51;102300.47;;;4.55;100.00
49030;BME280;43337;52.070;4.508;2024-03-06T07:30:18;102303.06;;;4.55;100.00
49030;BME280;43337;52.070;4.508;2024-03-06T07:32:43;102306.53;;;4.55;100.00
49030;BME280;43337;52.070;4.508;2024-03-06T07:35:09;102294.34;;;4.51;100.00
49030;BME280;43337;52.070;4.508;2024-03-06T07:37:34;102317.00;;;4.60;100.00
49030;BME280;43337;52.070;4.508;2024-03-06T07:39:59;102308.31;;;4.61;100.00
49030;BME280;43337;52.070;4.508;2024-03-06T07:42:25;102304.84;;;4.65;100.00
49030;BME280;43337;52.070;4.508;2024-03-06T07:44:51;102313.56;;;4.65;100.00
49030;BME280;43337;52.070;4.508;2024-03-06T07:47:16;102331.88;;;4.76;100.00
49030;BME280;43337;52.070;4.508;2024-03-06T07:49:41;102324.06;;;4.78;100.00
49030;BME280;43337;52.070;4.508;2024-03-06T07:52:07;102337.16;;;4.85;100.00
49030;BME280;43337;52.070;4.508;2024-03-06T07:54:32;102327.56;;;4.83;100.00
49030;BME280;43337;52.070;4.508;2024-03-06T07:56:58;102336.31;;;4.96;100.00
49030;BME280;43337;52.070;4.508;2024-03-06T07:59:23;102347.69;;;5.04;100.00
49030;BME280;43337;52.070;4.508;2024-03-06T08:01:49;102334.63;;;5.07;100.00
49030;BME280;43337;52.070;4.508;2024-03-06T08:04:14;102352.94;;;5.13;100.00
49030;BME280;43337;52.070;4.508;2024-03-06T08:06:40;102340.78;;;5.15;100.00
49030;BME280;43337;52.070;4.508;2024-03-06T08:09:05;102354.75;;;5.23;100.00
49030;BME280;43337;52.070;4.508;2024-03-06T08:11:32;102346.91;;;5.23;100.00
49030;BME280;43337;52.070;4.508;2024-03-06T08:13:59;102348.66;;;5.32;100.00
49030;BME280;43337;52.070;4.508;2024-03-06T08:16:24;102365.25;;;5.40;100.00
49030;BME280;43337;52.070;4.508;2024-03-06T08:18:50;102362.66;;;5.46;100.00
49030;BME280;43337;52.070;4.508;2024-03-06T08:21:15;102364.41;;;5.55;100.00
49030;BME280;43337;52.070;4.508;2024-03-06T08:23:40;102361.81;;;5.61;100.00
49030;BME280;43337;52.070;4.508;2024-03-06T08:26:06;102362.72;;;5.71;100.00
49030;BME280;43337;52.070;4.508;2024-03-06T08:28:32;102373.19;;;5.78;100.00
49030;BME280;43337;52.070;4.508;2024-03-06T08:30:57;102374.94;;;5.82;100.00
49030;BME280;43337;52.070;4.508;2024-03-06T08:33:22;102371.47;;;5.88;100.00
49030;BME280;43337;52.070;4.508;2024-03-06T08:35:48;102372.38;;;5.96;100.00
49030;BME280;43337;52.070;4.508;2024-03-06T08:38:13;102378.50;;;6.09;100.00
49030;BME280;43337;52.070;4.508;2024-03-06T08:40:38;102371.50;;;6.14;100.00
49030;BME280;43337;52.070;4.508;2024-03-06T08:43:04;102373.25;;;6.21;100.00
49030;BME280;43337;52.070;4.508;2024-03-06T08:45:30;102368.91;;;6.28;100.00
49030;BME280;43337;52.070;4.508;2024-03-06T08:47:55;102379.38;;;6.39;100.00
49030;BME280;43337;52.070;4.508;2024-03-06T08:50:21;102386.34;;;6.53;100.00
49030;BME280;43337;52.070;4.508;2024-03-06T08:52:46;102390.69;;;6.65;100.00
49030;BME280;43337;52.070;4.508;2024-03-06T08:55:12;102381.94;;;6.72;100.00
49030;BME280;43337;52.070;4.508;2024-03-06T08:57:38;102389.78;;;6.81;100.00
49030;BME280;43337;52.070;4.508;2024-03-06T09:00:05;102392.41;;;6.92;100.00
49030;BME280;43337;52.070;4.508;2024-03-06T09:02:36;102397.59;;;7.01;100.00
49030;BME280;43337;52.070;4.508;2024-03-06T09:05:04;102393.22;;;7.05;100.00
49030;BME280;43337;52.070;4.508;2024-03-06T09:07:30;102395.84;;;7.08;100.00
49030;BME280;43337;52.070;4.508;2024-03-06T09:09:55;102400.19;;;7.10;100.00
49030;BME280;43337;52.070;4.508;2024-03-06T09:12:22;102401.06;;;7.13;100.00
49030;BME280;43337;52.070;4.508;2024-03-06T09:14:47;102394.94;;;7.15;100.00
49030;BME280;43337;52.070;4.508;2024-03-06T09:17:13;102407.13;;;7.22;100.00
49030;BME280;43337;52.070;4.508;2024-03-06T09:19:39;102411.47;;;7.26;100.00
49030;BME280;43337;52.070;4.508;2024-03-06T09:22:05;102399.28;;;7.27;100.00
49030;BME280;43337;52.070;4.508;2024-03-06T09:24:34;102413.16;;;7.41;100.00
49030;BME280;43337;52.070;4.508;2024-03-06T09:27:04;102414.00;;;7.49;100.00
49030;BME280;43337;52.070;4.508;2024-03-06T09:29:29;102418.34;;;7.61;100.00
49030;BME280;43337;52.070;4.508;2024-03-06T09:31:54;102405.22;;;7.64;100.00
49030;BME280;43337;52.070;4.508;2024-03-06T09:34:20;102394.72;;;7.69;100.00
49030;BME280;43337;52.070;4.508;2024-03-06T09:36:48;102417.31;;;7.87;100.00
49030;BME280;43337;52.070;4.508;2024-03-06T09:39:15;102411.16;;;7.94;100.00
49030;BME280;43337;52.070;4.508;2024-03-06T09:41:54;102405.03;;;7.98;100.00
49030;BME280;43337;52.070;4.508;2024-03-06T09:44:22;102425.00;;;8.19;100.00
49030;BME280;43337;52.070;4.508;2024-03-06T09:46:48;102429.28;;;8.30;100.00
49030;BME280;43337;52.070;4.508;2024-03-06T09:49:16;102435.38;;;8.42;100.00
49030;BME280;43337;52.070;4.508;2024-03-06T09:51:43;102426.50;;;8.52;100.00
49030;BME280;43337;52.070;4.508;2024-03-06T09:54:13;102436.06;;;8.62;100.00
49030;BME280;43337;52.070;4.508;2024-03-06T09:56:44;102438.63;;;8.70;100.00
49030;BME280;43337;52.070;4.508;2024-03-06T09:59:10;102434.19;;;8.75;100.00
49030;BME280;43337;52.070;4.508;2024-03-06T10:01:53;102429.78;;;8.78;100.00
49030;BME280;43337;52.070;4.508;2024-03-06T10:04:26;102450.66;;;8.91;100.00
49030;BME280;43337;52.070;4.508;2024-03-06T10:06:59;102448.00;;;8.97;100.00
49030;BME280;43337;52.070;4.508;2024-03-06T10:09:25;102444.41;;;9.02;100.00
49030;BME280;43337;52.070;4.508;2024-03-06T10:11:51;102452.22;;;9.10;100.00
49030;BME280;43337;52.070;4.508;2024-03-06T10:14:22;102448.69;;;9.16;100.00
49030;BME280;43337;52.070;4.508;2024-03-06T10:16:55;102445.03;;;9.26;100.00
49030;BME280;43337;52.070;4.508;2024-03-06T10:19:22;102444.09;;;9.33;100.00
49030;BME280;43337;52.070;4.508;2024-03-06T10:21:49;102446.63;;;9.42;100.00
49030;BME280;43337;52.070;4.508;2024-03-06T10:24:26;102449.22;;;9.44;100.00
49030;BME280;43337;52.070;4.508;2024-03-06T10:26:54;102457.88;;;9.52;100.00
49030;BME280;43337;52.070;4.508;2024-03-06T10:29:21;102456.03;;;9.60;100.00
49030;BME280;43337;52.070;4.508;2024-03-06T10:31:52;102455.09;;;9.64;100.00
49030;BME280;43337;52.070;4.508;2024-03-06T10:34:17;102466.38;;;9.77;100.00
49030;BME280;43337;52.070;4.508;2024-03-06T10:36:43;102456.59;;;9.84;100.00
49030;BME280;43337;52.070;4.508;2024-03-06T10:39:11;102460.03;;;9.92;100.00
49030;BME280;43337;52.070;4.508;2024-03-06T10:41:40;102470.38;;;10.02;100.00
49030;BME280;43337;52.070;4.508;2024-03-06T10:44:11;102457.09;;;10.13;100.00
49030;BME280;43337;52.070;4.508;2024-03-06T10:46:40;102457.09;;;10.13;100.00
49030;BME280;43337;52.070;4.508;2024-03-06T10:49:07;102458.81;;;10.14;100.00
49030;BME280;43337;52.070;4.508;2024-03-06T10:51:33;102466.66;;;10.19;100.00
49030;BME280;43337;52.070;4.508;2024-03-06T10:53:59;102452.72;;;10.11;100.00
49030;BME280;43337;52.070;4.508;2024-03-06T10:56:25;102466.59;;;10.23;100.00
49030;BME280;43337;52.070;4.508;2024-03-06T10:58:53;102460.47;;;10.21;100.00
49030;BME280;43337;52.070;4.508;2024-03-06T11:01:25;102463.13;;;10.20;100.00
49030;BME280;43337;52.070;4.508;2024-03-06T11:03:51;102464.88;;;10.22;100.00
49030;BME280;43337;52.070;4.508;2024-03-06T11:06:18;102463.97;;;10.25;100.00
49030;BME280;43337;52.070;4.508;2024-03-06T11:08:44;102474.25;;;10.42;100.00
49030;BME280;43337;52.070;4.508;2024-03-06T11:11:19;102474.00;;;10.57;100.00
49030;BME280;43337;52.070;4.508;2024-03-06T11:13:45;102473.84;;;10.66;100.00
49030;BME280;43337;52.070;4.508;2024-03-06T11:16:12;102477.22;;;10.74;100.00
49030;BME280;43337;52.070;4.508;2024-03-06T11:23:31;102485.28;;;10.65;100.00
49030;BME280;43337;52.070;4.508;2024-03-06T11:26:01;102487.06;;;10.65;100.00
49030;BME280;43337;52.070;4.508;2024-03-06T11:28:32;102484.38;;;10.66;100.00
49030;BME280;43337;52.070;4.508;2024-03-06T11:31:11;102478.94;;;10.75;100.00
49030;BME280;43337;52.070;4.508;2024-03-06T11:33:47;102489.41;;;10.82;100.00
49030;BME280;43337;52.070;4.508;2024-03-06T11:36:20;102479.53;;;10.93;100.00
49030;BME280;43337;52.070;4.508;2024-03-06T11:39:01;102483.63;;;11.11;100.00
49030;BME280;43337;52.070;4.508;2024-03-06T11:41:28;102489.41;;;11.30;100.00
49030;BME280;43337;52.070;4.508;2024-03-06T11:43:55;102482.19;;;11.39;100.00
49030;BME280;43337;52.070;4.508;2024-03-06T11:46:42;102482.31;;;11.33;100.00
49030;BME280;43337;52.070;4.508;2024-03-06T11:49:19;102484.16;;;11.28;100.00
49030;BME280;43337;52.070;4.508;2024-03-06T11:51:56;102492.31;;;11.16;100.00
49030;BME280;43337;52.070;4.508;2024-03-06T11:54:23;102486.22;;;11.12;100.00
49030;BME280;43337;52.070;4.508;2024-03-06T11:56:51;102485.38;;;11.10;100.00
49030;BME280;43337;52.070;4.508;2024-03-06T11:59:21;102474.22;;;10.96;100.00
49030;BME280;43337;52.070;4.508;2024-03-06T12:01:47;102483.00;;;10.95;100.00
49030;BME280;43337;52.070;4.508;2024-03-06T12:04:13;102486.59;;;10.91;100.00
49030;BME280;43337;52.070;4.508;2024-03-06T12:06:38;102482.22;;;10.90;100.00
49030;BME280;43337;52.070;4.508;2024-03-06T12:09:04;102486.47;;;10.98;100.00
49030;BME280;43337;52.070;4.508;2024-03-06T12:11:29;102468.81;;;11.04;100.00
49030;BME280;43337;52.070;4.508;2024-03-06T12:13:56;102491.31;;;11.21;100.00
49030;BME280;43337;52.070;4.508;2024-03-06T12:16:22;102459.00;;;11.12;100.00
49030;BME280;43337;52.070;4.508;2024-03-06T12:18:54;102483.22;;;11.32;100.00
49030;BME280;43337;52.070;4.508;2024-03-06T12:21:20;102491.72;;;11.46;100.00
49030;BME280;43337;52.070;4.508;2024-03-06T12:23:45;102482.00;;;11.50;100.00
49030;BME280;43337;52.070;4.508;2024-03-06T12:26:11;102480.97;;;11.56;100.00
49030;BME280;43337;52.070;4.508;2024-03-06T12:28:38;102481.84;;;11.58;100.00
49030;BME280;43337;52.070;4.508;2024-03-06T12:31:05;102478.22;;;11.62;100.00
49030;BME280;43337;52.070;4.508;2024-03-06T12:33:31;102486.81;;;11.71;100.00
49030;BME280;43337;52.070;4.508;2024-03-06T12:36:07;102489.44;;;11.73;100.00
49030;BME280;43337;52.070;4.508;2024-03-06T12:38:36;102488.41;;;11.80;100.00
49030;BME280;43337;52.070;4.508;2024-03-06T12:41:02;102501.53;;;11.85;100.00
49030;BME280;43337;52.070;4.508;2024-03-06T12:43:27;102491.75;;;11.90;100.00
49030;BME280;43337;52.070;4.508;2024-03-06T12:45:56;102497.78;;;11.96;100.00
49030;BME280;43337;52.070;4.508;2024-03-06T12:48:23;102500.19;;;12.06;100.00